createdAt,value
2019-03-04T00:00:42.592Z,92.00
2019-03-04T00:01:50.167Z,91.90
2019-03-04T00:02:55.604Z,91.90
2019-03-04T00:04:01.341Z,92.00
2019-03-04T00:05:17.823Z,92.00
2019-03-04T00:06:34.511Z,92.00
2019-03-04T00:07:38.389Z,92.00
2019-03-04T00:08:47.252Z,92.10
2019-03-04T00:09:54.321Z,92.10
2019-03-04T00:10:58.781Z,92.00
2019-03-04T00:12:03.273Z,92.00
2019-03-04T00:13:08.015Z,91.90
2019-03-04T00:14:13.620Z,91.90
2019-03-04T00:15:18.050Z,92.00
2019-03-04T00:16:27.031Z,92.00
2019-03-04T00:17:34.468Z,92.00
2019-03-04T00:18:42.664Z,92.30
2019-03-04T00:19:56.225Z,92.00
2019-03-04T00:20:59.551Z,92.00
2019-03-04T00:22:17.445Z,91.90
2019-03-04T00:23:24.118Z,91.90
2019-03-04T00:24:34.059Z,91.90
2019-03-04T00:25:34.966Z,91.90
2019-03-04T00:26:50.753Z,91.90
2019-03-04T00:28:04.130Z,91.80
2019-03-04T00:29:16.347Z,91.80
2019-03-04T00:30:19.947Z,91.70
2019-03-04T00:31:29.327Z,91.70
2019-03-04T00:32:36.667Z,91.70
2019-03-04T00:33:48.652Z,91.70
2019-03-04T00:35:43.584Z,91.80
2019-03-04T00:36:40.693Z,91.80
2019-03-04T00:39:52.621Z,91.70
2019-03-04T00:41:05.186Z,91.80
2019-03-04T00:44:17.939Z,91.70
2019-03-04T00:45:09.037Z,92.10
2019-03-04T00:46:19.260Z,91.70
2019-03-04T00:47:23.966Z,91.70
2019-03-04T00:48:51.433Z,91.80
2019-03-04T00:52:51.669Z,91.80
2019-03-04T00:53:53.997Z,91.80
2019-03-04T00:55:10.110Z,91.80
2019-03-04T00:56:11.825Z,91.90
2019-03-04T00:57:19.927Z,91.90
2019-03-04T00:58:30.503Z,91.80
2019-03-04T01:00:35.077Z,91.80
2019-03-04T01:00:58.969Z,91.80
2019-03-04T01:03:22.929Z,91.90
2019-03-04T01:03:44.594Z,91.90
2019-03-04T01:04:31.533Z,91.90
2019-03-04T01:06:43.981Z,91.90
2019-03-04T01:06:55.432Z,91.80
2019-03-04T01:07:56.457Z,91.90
2019-03-04T01:09:05.088Z,91.80
2019-03-04T01:10:31.746Z,91.90
2019-03-04T01:11:26.604Z,91.90
2019-03-04T01:12:34.472Z,91.90
2019-03-04T01:13:42.873Z,91.90
2019-03-04T01:15:57.370Z,91.80
2019-03-04T01:16:04.286Z,91.90
2019-03-04T01:17:22.444Z,91.80
2019-03-04T01:18:16.186Z,91.80
2019-03-04T01:19:23.869Z,91.80
2019-03-04T01:20:32.585Z,91.80
2019-03-04T01:21:44.167Z,91.70
2019-03-04T01:22:55.748Z,91.70
2019-03-04T01:24:10.743Z,91.70
2019-03-04T01:25:29.279Z,91.70
2019-03-04T01:26:57.376Z,91.80
2019-03-04T01:28:18.683Z,91.80
2019-03-04T01:29:07.047Z,91.80
2019-03-04T01:30:27.214Z,92.10
2019-03-04T01:31:44.671Z,91.70
2019-03-04T01:33:02.400Z,91.70
2019-03-04T01:34:57.362Z,91.70
2019-03-04T01:35:25.050Z,92.10
2019-03-04T01:36:41.493Z,91.70
2019-03-04T01:37:50.198Z,91.70
2019-03-04T01:39:01.185Z,91.70
2019-03-04T01:40:24.946Z,91.70
2019-03-04T01:41:31.297Z,91.70
2019-03-04T01:42:59.579Z,91.70
2019-03-04T01:43:57.625Z,91.70
2019-03-04T01:45:14.175Z,91.70
2019-03-04T01:46:42.728Z,91.70
2019-03-04T01:47:42.192Z,91.60
2019-03-04T01:49:06.166Z,91.60
2019-03-04T01:50:37.409Z,91.70
2019-03-04T01:52:30.364Z,91.60
2019-03-04T01:53:03.740Z,91.60
2019-03-04T01:54:09.621Z,91.60
2019-03-04T01:55:27.186Z,91.50
2019-03-04T01:56:37.333Z,91.50
2019-03-04T01:57:42.959Z,91.50
2019-03-04T01:58:59.955Z,91.50
2019-03-04T02:00:28.140Z,91.60
2019-03-04T02:01:32.977Z,91.50
2019-03-04T02:02:50.946Z,91.50
2019-03-04T02:04:25.571Z,91.50
2019-03-04T02:05:22.236Z,91.50
2019-03-04T02:06:28.286Z,91.50
2019-03-04T02:07:36.906Z,91.50
2019-03-04T02:08:47.916Z,91.60
2019-03-04T02:09:47.248Z,91.60
2019-03-04T02:11:14.874Z,91.60
2019-03-04T02:12:01.090Z,91.60
2019-03-04T02:13:05.660Z,91.70
2019-03-04T02:14:12.260Z,91.70
2019-03-04T02:15:20.113Z,91.70
2019-03-04T02:16:29.128Z,91.70
2019-03-04T02:17:33.748Z,91.70
2019-03-04T02:18:38.122Z,91.80
2019-03-04T02:19:46.462Z,91.80
2019-03-04T02:20:51.028Z,91.80
2019-03-04T02:21:58.516Z,91.80
2019-03-04T02:23:02.968Z,91.90
2019-03-04T02:24:23.184Z,91.90
2019-03-04T02:25:43.462Z,92.00
2019-03-04T02:26:50.403Z,92.00
2019-03-04T02:27:55.690Z,92.00
2019-03-04T02:29:03.256Z,92.00
2019-03-04T02:30:13.517Z,92.10
2019-03-04T02:31:17.802Z,92.10
2019-03-04T02:32:25.434Z,92.00
2019-03-04T02:33:28.421Z,92.10
2019-03-04T02:34:34.527Z,92.00
2019-03-04T02:35:38.985Z,92.10
2019-03-04T02:36:48.322Z,92.10
2019-03-04T02:37:56.308Z,92.10
2019-03-04T02:39:06.336Z,92.10
2019-03-04T02:40:46.488Z,92.40
2019-03-04T02:41:20.143Z,92.00
2019-03-04T02:42:27.730Z,92.00
2019-03-04T02:43:41.058Z,92.00
2019-03-04T02:44:54.821Z,92.00
2019-03-04T02:46:18.081Z,92.00
2019-03-04T02:47:14.715Z,92.00
2019-03-04T02:48:18.650Z,92.10
2019-03-04T02:49:23.480Z,92.00
2019-03-04T02:50:31.622Z,92.00
2019-03-04T02:51:39.113Z,91.80
2019-03-04T02:52:45.625Z,92.00
2019-03-04T02:54:10.081Z,91.80
2019-03-04T02:55:21.186Z,91.80
2019-03-04T02:56:28.952Z,91.80
2019-03-04T02:57:38.485Z,91.80
2019-03-04T02:58:44.226Z,91.80
2019-03-04T03:00:06.998Z,91.80
2019-03-04T03:01:23.362Z,91.70
2019-03-04T03:02:28.354Z,91.60
2019-03-04T03:03:38.515Z,91.60
2019-03-04T03:04:48.497Z,91.60
2019-03-04T03:06:00.664Z,91.50
2019-03-04T03:07:10.822Z,91.50
2019-03-04T03:08:22.699Z,91.50
2019-03-04T03:09:32.832Z,91.50
2019-03-04T03:10:40.258Z,91.40
2019-03-04T03:11:46.393Z,91.40
2019-03-04T03:12:50.974Z,91.50
2019-03-04T03:14:03.404Z,91.50
2019-03-04T03:15:11.275Z,91.40
2019-03-04T03:16:18.593Z,91.40
2019-03-04T03:17:29.412Z,91.40
2019-03-04T03:18:35.671Z,91.40
2019-03-04T03:19:44.229Z,91.40
2019-03-04T03:20:53.259Z,91.40
2019-03-04T03:22:03.526Z,91.40
2019-03-04T03:23:09.225Z,91.40
2019-03-04T03:24:21.093Z,91.30
2019-03-04T03:25:29.606Z,91.30
2019-03-04T03:26:34.125Z,91.20
2019-03-04T03:27:38.759Z,91.20
2019-03-04T03:28:47.559Z,91.20
2019-03-04T03:29:54.672Z,91.30
2019-03-04T03:31:04.161Z,91.20
2019-03-04T03:32:08.614Z,91.30
2019-03-04T03:33:16.388Z,91.20
2019-03-04T03:34:22.679Z,91.30
2019-03-04T03:35:28.246Z,91.20
2019-03-04T03:36:32.842Z,91.20
2019-03-04T03:37:38.914Z,91.20
2019-03-04T03:38:48.729Z,91.20
2019-03-04T03:39:56.212Z,91.10
2019-03-04T03:41:05.638Z,91.00
2019-03-04T03:42:11.483Z,91.00
2019-03-04T03:43:18.581Z,91.00
2019-03-04T03:44:30.009Z,90.90
2019-03-04T03:45:35.054Z,91.00
2019-03-04T03:46:44.462Z,90.90
2019-03-04T03:47:48.767Z,90.90
2019-03-04T03:48:53.090Z,90.90
2019-03-04T03:49:59.849Z,90.80
2019-03-04T03:51:09.015Z,90.80
2019-03-04T03:52:13.770Z,90.80
2019-03-04T03:53:27.329Z,90.90
2019-03-04T03:54:34.845Z,90.80
2019-03-04T03:55:44.050Z,90.80
2019-03-04T03:56:52.295Z,90.90
2019-03-04T03:57:57.384Z,90.80
2019-03-04T03:59:05.630Z,90.80
2019-03-04T04:00:16.504Z,90.70
2019-03-04T04:01:21.972Z,90.70
2019-03-04T04:02:30.852Z,90.70
2019-03-04T04:03:37.858Z,90.60
2019-03-04T04:04:45.203Z,90.60
2019-03-04T04:05:51.233Z,90.60
2019-03-04T04:06:56.799Z,90.60
2019-03-04T04:08:01.327Z,90.80
2019-03-04T04:09:15.770Z,90.60
2019-03-04T04:10:26.526Z,90.60
2019-03-04T04:11:34.792Z,90.60
2019-03-04T04:12:48.141Z,90.50
2019-03-04T04:13:55.858Z,90.50
2019-03-04T04:15:07.706Z,90.50
2019-03-04T04:16:17.448Z,90.50
2019-03-04T04:17:35.791Z,90.40
2019-03-04T04:19:05.263Z,90.40
2019-03-04T04:20:02.435Z,90.30
2019-03-04T04:21:07.153Z,90.20
2019-03-04T04:22:13.596Z,90.30
2019-03-04T04:23:27.749Z,90.20
2019-03-04T04:24:38.411Z,90.20
2019-03-04T04:25:45.592Z,90.20
2019-03-04T04:26:52.172Z,90.60
2019-03-04T04:28:03.944Z,90.10
2019-03-04T04:29:16.852Z,90.10
2019-03-04T04:30:26.019Z,90.20
2019-03-04T04:31:33.214Z,90.20
2019-03-04T04:32:42.848Z,90.20
2019-03-04T04:33:51.574Z,90.10
2019-03-04T04:34:57.541Z,90.10
2019-03-04T04:36:03.983Z,90.10
2019-03-04T04:37:15.436Z,90.00
2019-03-04T04:38:21.680Z,90.00
2019-03-04T04:39:34.609Z,89.80
2019-03-04T04:40:42.729Z,89.90
2019-03-04T04:41:49.496Z,89.80
2019-03-04T04:43:12.283Z,89.80
2019-03-04T04:44:09.632Z,89.80
2019-03-04T04:45:28.928Z,89.70
2019-03-04T04:46:59.949Z,89.60
2019-03-04T04:47:55.760Z,89.50
2019-03-04T04:49:09.094Z,89.40
2019-03-04T04:50:28.963Z,89.40
2019-03-04T04:51:41.770Z,89.40
2019-03-04T04:52:49.968Z,89.20
2019-03-04T04:54:01.436Z,89.10
2019-03-04T04:55:20.663Z,89.10
2019-03-04T04:56:17.288Z,89.10
2019-03-04T04:57:40.783Z,89.10
2019-03-04T04:58:46.798Z,88.60
2019-03-04T04:59:52.972Z,88.60
2019-03-04T05:00:59.121Z,88.70
2019-03-04T05:02:06.812Z,88.40
2019-03-04T05:03:18.109Z,88.40
2019-03-04T05:04:24.338Z,88.30
2019-03-04T05:05:33.301Z,88.10
2019-03-04T05:06:42.384Z,88.20
2019-03-04T05:07:50.765Z,88.20
2019-03-04T05:09:05.710Z,88.10
2019-03-04T05:10:07.281Z,87.90
2019-03-04T05:11:28.960Z,87.90
2019-03-04T05:12:33.763Z,87.70
2019-03-04T05:13:44.698Z,87.60
2019-03-04T05:14:52.256Z,87.60
2019-03-04T05:16:05.651Z,87.60
2019-03-04T05:17:13.635Z,87.60
2019-03-04T05:18:22.081Z,87.60
2019-03-04T05:19:32.074Z,87.60
2019-03-04T05:20:44.511Z,87.70
2019-03-04T05:21:55.478Z,87.70
2019-03-04T05:22:59.953Z,87.80
2019-03-04T05:24:04.363Z,87.60
2019-03-04T05:25:10.349Z,87.60
2019-03-04T05:26:16.590Z,87.30
2019-03-04T05:27:31.008Z,87.00
2019-03-04T05:28:39.788Z,87.00
2019-03-04T05:29:45.886Z,86.90
2019-03-04T05:30:51.875Z,86.90
2019-03-04T05:32:01.697Z,86.90
2019-03-04T05:33:16.613Z,86.80
2019-03-04T05:34:21.219Z,86.80
2019-03-04T05:35:27.175Z,86.80
2019-03-04T05:36:34.478Z,86.80
2019-03-04T05:37:45.482Z,86.90
2019-03-04T05:38:54.295Z,86.80
2019-03-04T05:40:03.303Z,86.80
2019-03-04T05:41:19.363Z,86.70
2019-03-04T05:43:55.899Z,86.20
2019-03-04T05:44:59.731Z,86.30
2019-03-04T05:46:04.176Z,86.20
2019-03-04T05:47:15.615Z,86.00
2019-03-04T05:48:35.077Z,86.00
2019-03-04T05:49:59.336Z,85.90
2019-03-04T05:51:22.269Z,86.00
2019-03-04T05:52:23.408Z,86.00
2019-03-04T05:53:46.309Z,85.90
2019-03-04T05:54:42.517Z,85.90
2019-03-04T05:55:58.265Z,85.90
2019-03-04T05:57:07.800Z,85.90
2019-03-04T05:58:19.894Z,85.90
2019-03-04T05:59:26.047Z,85.90
2019-03-04T06:00:47.519Z,85.70
2019-03-04T06:03:22.477Z,84.90
2019-03-04T06:04:35.869Z,84.80
2019-03-04T06:05:42.568Z,84.70
2019-03-04T06:06:58.728Z,84.80
2019-03-04T06:08:07.441Z,84.80
2019-03-04T06:09:20.988Z,84.70
2019-03-04T06:10:31.610Z,84.80
2019-03-04T06:11:48.926Z,84.90
2019-03-04T06:14:05.731Z,84.70
2019-03-04T06:14:31.807Z,84.90
2019-03-04T06:15:30.773Z,84.60
2019-03-04T06:16:47.036Z,84.50
2019-03-04T06:17:58.706Z,84.60
2019-03-04T06:19:06.944Z,84.20
2019-03-04T06:20:23.081Z,84.20
2019-03-04T06:21:35.575Z,84.00
2019-03-04T06:22:51.005Z,83.80
2019-03-04T06:24:16.762Z,83.80
2019-03-04T06:25:41.604Z,83.90
2019-03-04T06:26:49.029Z,84.50
2019-03-04T06:28:21.040Z,83.70
2019-03-04T06:29:30.427Z,83.60
2019-03-04T06:31:02.202Z,83.50
2019-03-04T06:32:20.846Z,83.50
2019-03-04T06:33:28.495Z,83.40
2019-03-04T06:34:52.503Z,83.40
2019-03-04T06:36:03.385Z,83.10
2019-03-04T06:37:21.397Z,83.10
2019-03-04T06:38:29.091Z,82.90
2019-03-04T06:39:51.777Z,83.00
2019-03-04T06:40:53.237Z,82.90
2019-03-04T06:42:13.856Z,82.90
2019-03-04T06:43:14.475Z,82.80
2019-03-04T06:44:23.978Z,82.70
2019-03-04T06:46:53.597Z,82.70
2019-03-04T06:47:11.743Z,82.70
2019-03-04T06:47:53.681Z,82.70
2019-03-04T06:49:05.669Z,82.50
2019-03-04T06:51:23.506Z,82.30
2019-03-04T06:51:50.225Z,82.10
2019-03-04T06:52:57.823Z,82.20
2019-03-04T06:54:25.490Z,82.10
2019-03-04T06:55:47.355Z,82.10
2019-03-04T06:57:09.322Z,82.00
2019-03-04T06:58:18.761Z,81.50
2019-03-04T06:59:50.797Z,81.70
2019-03-04T07:00:56.975Z,81.70
2019-03-04T07:02:23.709Z,81.30
2019-03-04T07:03:41.329Z,81.20
2019-03-04T07:05:14.823Z,81.00
2019-03-04T07:06:26.504Z,81.00
2019-03-04T07:07:46.377Z,80.90
2019-03-04T07:09:11.133Z,81.30
2019-03-04T07:10:19.027Z,81.70
2019-03-04T07:11:27.929Z,80.70
2019-03-04T07:12:53.290Z,80.70
2019-03-04T07:14:10.564Z,80.60
2019-03-04T07:15:27.589Z,80.50
2019-03-04T07:16:58.489Z,80.40
2019-03-04T07:20:40.843Z,80.20
2019-03-04T07:21:47.008Z,80.00
2019-03-04T07:22:52.882Z,79.30
2019-03-04T07:24:04.798Z,79.30
2019-03-04T07:25:10.785Z,79.20
2019-03-04T07:26:16.249Z,79.10
2019-03-04T07:27:21.618Z,79.30
2019-03-04T07:28:28.360Z,79.20
2019-03-04T07:29:35.275Z,79.10
2019-03-04T07:30:41.611Z,79.00
2019-03-04T07:31:46.403Z,78.90
2019-03-04T07:32:56.742Z,78.90
2019-03-04T07:34:04.655Z,78.90
2019-03-04T07:36:36.229Z,78.40
2019-03-04T07:37:44.734Z,78.20
2019-03-04T07:38:55.796Z,78.00
2019-03-04T07:40:08.289Z,77.90
2019-03-04T07:41:16.401Z,77.40
2019-03-04T07:42:28.495Z,77.40
2019-03-04T07:43:32.159Z,77.50
2019-03-04T07:44:44.231Z,77.60
2019-03-04T07:45:56.143Z,77.60
2019-03-04T07:47:02.226Z,77.50
2019-03-04T07:48:10.898Z,77.30
2019-03-04T07:49:16.536Z,76.70
2019-03-04T07:50:27.519Z,76.30
2019-03-04T07:51:33.274Z,76.20
2019-03-04T07:52:51.883Z,76.10
2019-03-04T07:53:50.767Z,75.90
2019-03-04T07:54:57.466Z,75.90
2019-03-04T07:56:05.647Z,75.80
2019-03-04T07:57:12.394Z,75.80
2019-03-04T07:58:17.309Z,75.90
2019-03-04T07:59:30.037Z,76.00
2019-03-04T08:00:30.661Z,76.10
2019-03-04T08:01:35.346Z,75.80
2019-03-04T08:02:44.841Z,75.80
2019-03-04T08:03:54.881Z,75.80
2019-03-04T08:05:02.297Z,75.80
2019-03-04T08:06:07.007Z,75.80
2019-03-04T08:07:41.495Z,75.20
2019-03-04T08:09:13.811Z,74.40
2019-03-04T08:10:46.539Z,73.90
2019-03-04T08:12:17.819Z,73.50
2019-03-04T08:13:30.785Z,73.50
2019-03-04T08:14:35.247Z,73.80
2019-03-04T08:15:42.360Z,74.10
2019-03-04T08:16:46.643Z,74.30
2019-03-04T08:17:54.227Z,74.50
2019-03-04T08:18:58.701Z,74.60
2019-03-04T08:20:04.682Z,74.50
2019-03-04T08:21:10.652Z,74.50
2019-03-04T08:22:15.076Z,74.50
2019-03-04T08:23:21.051Z,74.30
2019-03-04T08:24:28.568Z,74.40
2019-03-04T08:25:33.597Z,73.80
2019-03-04T08:26:41.000Z,73.80
2019-03-04T08:27:45.901Z,73.90
2019-03-04T08:28:51.919Z,73.80
2019-03-04T08:29:56.798Z,74.00
2019-03-04T08:31:01.134Z,74.00
2019-03-04T08:32:11.049Z,73.90
2019-03-04T08:33:14.290Z,73.20
2019-03-04T08:34:30.545Z,73.00
2019-03-04T08:35:27.584Z,73.20
2019-03-04T08:36:37.218Z,73.20
2019-03-04T08:37:37.879Z,73.40
2019-03-04T08:38:45.365Z,73.40
2019-03-04T08:39:51.339Z,73.10
2019-03-04T08:41:03.992Z,73.00
2019-03-04T08:42:08.280Z,72.80
2019-03-04T08:43:14.863Z,72.80
2019-03-04T08:44:19.975Z,72.10
2019-03-04T08:45:29.472Z,71.70
2019-03-04T08:46:34.955Z,71.90
2019-03-04T08:47:40.810Z,72.00
2019-03-04T08:48:49.531Z,71.80
2019-03-04T08:49:54.205Z,71.40
2019-03-04T08:51:02.398Z,71.50
2019-03-04T08:52:11.904Z,71.50
2019-03-04T08:53:18.699Z,71.60
2019-03-04T08:54:24.851Z,71.50
2019-03-04T08:55:33.690Z,71.60
2019-03-04T08:56:38.188Z,71.70
2019-03-04T08:57:46.323Z,71.70
2019-03-04T08:58:59.635Z,71.00
2019-03-04T08:59:58.319Z,71.10
2019-03-04T09:01:09.269Z,71.10
2019-03-04T09:02:18.274Z,71.20
2019-03-04T09:03:27.648Z,71.00
2019-03-04T09:04:33.623Z,70.90
2019-03-04T09:05:42.793Z,70.90
2019-03-04T09:06:47.538Z,70.60
2019-03-04T09:07:58.566Z,70.70
2019-03-04T09:09:04.818Z,70.80
2019-03-04T09:10:15.989Z,71.00
2019-03-04T09:11:23.272Z,71.00
2019-03-04T09:12:29.423Z,70.90
2019-03-04T09:13:36.579Z,70.90
2019-03-04T09:14:42.429Z,70.30
2019-03-04T09:15:49.830Z,69.70
2019-03-04T09:16:54.211Z,69.80
2019-03-04T09:18:05.909Z,70.10
2019-03-04T09:19:16.763Z,70.20
2019-03-04T09:20:21.906Z,70.40
2019-03-04T09:21:31.765Z,70.40
2019-03-04T09:22:37.684Z,70.20
2019-03-04T09:23:43.806Z,70.20
2019-03-04T09:24:49.610Z,70.30
2019-03-04T09:26:08.720Z,70.20
2019-03-04T09:27:14.770Z,70.20
2019-03-04T09:28:19.075Z,70.30
2019-03-04T09:29:24.602Z,70.20
2019-03-04T09:30:29.746Z,70.20
2019-03-04T09:31:35.524Z,70.10
2019-03-04T09:32:48.731Z,70.00
2019-03-04T09:33:56.274Z,69.50
2019-03-04T09:35:02.281Z,69.60
2019-03-04T09:36:11.444Z,69.50
2019-03-04T09:37:17.795Z,69.10
2019-03-04T09:38:25.611Z,68.80
2019-03-04T09:39:29.873Z,68.60
2019-03-04T09:40:36.608Z,68.40
2019-03-04T09:41:41.103Z,69.20
2019-03-04T09:42:51.844Z,68.40
2019-03-04T09:43:59.525Z,68.70
2019-03-04T09:45:06.263Z,68.70
2019-03-04T09:46:12.492Z,68.70
2019-03-04T09:47:18.402Z,68.30
2019-03-04T09:48:25.847Z,68.10
2019-03-04T09:49:30.254Z,68.30
2019-03-04T09:50:36.536Z,68.60
2019-03-04T09:51:44.244Z,68.40
2019-03-04T09:52:51.050Z,67.90
2019-03-04T09:53:58.202Z,67.80
2019-03-04T09:55:04.721Z,68.00
2019-03-04T09:56:11.437Z,68.20
2019-03-04T09:57:18.301Z,67.90
2019-03-04T09:58:24.190Z,68.00
2019-03-04T09:59:30.459Z,68.10
2019-03-04T10:01:07.869Z,67.80
2019-03-04T10:03:45.668Z,67.60
2019-03-04T10:05:09.368Z,67.30
2019-03-04T10:06:46.612Z,67.00
2019-03-04T10:08:40.557Z,67.20
2019-03-04T10:09:28.496Z,67.30
2019-03-04T10:11:01.585Z,67.20
2019-03-04T10:12:14.598Z,66.90
2019-03-04T10:13:34.976Z,67.10
2019-03-04T10:14:41.253Z,67.00
2019-03-04T10:16:02.906Z,66.80
2019-03-04T10:17:29.315Z,66.60
2019-03-04T10:18:37.654Z,66.80
2019-03-04T10:20:08.859Z,67.20
2019-03-04T10:21:22.302Z,67.00
2019-03-04T10:22:34.982Z,67.20
2019-03-04T10:24:12.221Z,67.10
2019-03-04T10:25:41.557Z,67.10
2019-03-04T10:26:53.457Z,66.60
2019-03-04T10:28:20.421Z,66.60
2019-03-04T10:29:34.162Z,66.50
2019-03-04T10:30:55.712Z,66.70
2019-03-04T10:32:07.234Z,66.70
2019-03-04T10:33:19.113Z,66.90
2019-03-04T10:34:46.983Z,66.40
2019-03-04T10:36:29.444Z,66.10
2019-03-04T10:37:54.434Z,66.30
2019-03-04T10:39:10.043Z,66.00
2019-03-04T10:40:26.442Z,65.90
2019-03-04T10:41:55.154Z,65.70
2019-03-04T10:43:19.908Z,65.90
2019-03-04T10:44:46.950Z,65.60
2019-03-04T10:46:09.167Z,65.50
2019-03-04T10:47:19.318Z,65.40
2019-03-04T10:48:27.592Z,65.10
2019-03-04T10:49:31.242Z,64.90
2019-03-04T10:50:37.354Z,64.20
2019-03-04T10:51:43.272Z,63.20
2019-03-04T10:52:49.050Z,63.30
2019-03-04T10:53:56.644Z,62.80
2019-03-04T10:55:03.626Z,62.30
2019-03-04T10:56:11.065Z,62.30
2019-03-04T10:57:21.762Z,61.60
2019-03-04T10:58:27.983Z,61.20
2019-03-04T10:59:32.398Z,60.20
2019-03-04T11:00:37.557Z,60.90
2019-03-04T11:01:45.361Z,60.40
2019-03-04T11:02:51.182Z,59.50
2019-03-04T11:03:59.392Z,59.20
2019-03-04T11:05:08.992Z,59.40
2019-03-04T11:06:14.971Z,59.40
2019-03-04T11:07:22.569Z,59.40
2019-03-04T11:08:26.994Z,59.40
2019-03-04T11:09:32.766Z,59.50
2019-03-04T11:10:37.220Z,59.80
2019-03-04T11:11:43.579Z,60.00
2019-03-04T11:12:51.041Z,59.30
2019-03-04T11:13:58.114Z,59.20
2019-03-04T11:15:06.413Z,59.40
2019-03-04T11:16:11.866Z,59.80
2019-03-04T11:17:21.386Z,59.20
2019-03-04T11:18:25.869Z,59.40
2019-03-04T11:19:30.277Z,59.10
2019-03-04T11:20:37.458Z,59.10
2019-03-04T11:21:41.842Z,59.20
2019-03-04T11:22:46.420Z,59.00
2019-03-04T11:23:53.019Z,58.80
2019-03-04T11:24:57.576Z,58.90
2019-03-04T11:26:02.092Z,58.80
2019-03-04T11:27:09.576Z,58.70
2019-03-04T11:28:17.460Z,58.80
2019-03-04T11:29:31.826Z,58.60
2019-03-04T11:30:41.014Z,59.20
2019-03-04T11:31:50.754Z,58.80
2019-03-04T11:32:59.355Z,59.00
2019-03-04T11:34:08.488Z,59.00
2019-03-04T11:35:14.770Z,59.00
2019-03-04T11:36:31.842Z,58.90
2019-03-04T11:37:37.904Z,58.90
2019-03-04T11:38:53.484Z,59.00
2019-03-04T11:40:05.399Z,58.80
2019-03-04T11:41:12.823Z,58.90
2019-03-04T11:42:17.220Z,58.80
2019-03-04T11:43:24.482Z,58.70
2019-03-04T11:44:28.746Z,58.20
2019-03-04T11:45:34.934Z,58.40
2019-03-04T11:46:43.088Z,58.30
2019-03-04T11:47:49.560Z,57.90
2019-03-04T11:48:55.346Z,58.20
2019-03-04T11:50:01.800Z,57.90
2019-03-04T11:51:06.365Z,57.70
2019-03-04T11:52:10.854Z,57.60
2019-03-04T11:53:22.575Z,57.40
2019-03-04T11:54:28.932Z,58.00
2019-03-04T11:55:34.972Z,57.40
2019-03-04T11:56:40.405Z,57.50
2019-03-04T11:57:47.477Z,57.50
2019-03-04T11:58:54.932Z,57.60
2019-03-04T11:59:58.526Z,57.80
2019-03-04T12:01:07.357Z,57.60
2019-03-04T12:02:13.295Z,57.70
2019-03-04T12:03:19.706Z,57.90
2019-03-04T12:04:27.754Z,57.90
2019-03-04T12:05:36.760Z,58.10
2019-03-04T12:06:43.487Z,58.00
2019-03-04T12:07:49.532Z,57.50
2019-03-04T12:08:57.580Z,57.50
2019-03-04T12:10:03.611Z,57.50
2019-03-04T12:11:08.659Z,57.40
2019-03-04T12:12:13.220Z,57.40
2019-03-04T12:13:22.611Z,57.60
2019-03-04T12:14:27.925Z,57.60
2019-03-04T12:15:34.984Z,57.50
2019-03-04T12:16:43.308Z,57.10
2019-03-04T12:17:50.726Z,57.20
2019-03-04T12:18:58.792Z,57.10
2019-03-04T12:20:15.955Z,57.10
2019-03-04T12:21:18.014Z,57.40
2019-03-04T12:22:22.492Z,57.60
2019-03-04T12:23:29.890Z,57.60
2019-03-04T12:24:34.072Z,57.70
2019-03-04T12:25:40.486Z,57.80
2019-03-04T12:26:46.257Z,57.60
2019-03-04T12:27:54.248Z,57.50
2019-03-04T12:28:59.879Z,57.30
2019-03-04T12:30:07.304Z,56.90
2019-03-04T12:31:14.508Z,57.00
2019-03-04T12:32:24.740Z,56.90
2019-03-04T12:33:33.984Z,56.80
2019-03-04T12:34:38.775Z,56.80
2019-03-04T12:35:45.697Z,56.90
2019-03-04T12:36:50.508Z,57.00
2019-03-04T12:37:57.905Z,56.40
2019-03-04T12:39:05.793Z,56.00
2019-03-04T12:40:23.215Z,55.70
2019-03-04T12:41:31.497Z,55.70
2019-03-04T12:51:23.296Z,54.00
2019-03-04T12:52:27.141Z,53.20
2019-03-04T12:53:37.294Z,53.30
2019-03-04T12:54:39.148Z,53.40
2019-03-04T12:55:44.964Z,53.60
2019-03-04T12:56:54.939Z,53.40
2019-03-04T12:58:04.238Z,53.30
2019-03-04T12:59:14.197Z,52.90
2019-03-04T13:00:25.755Z,52.80
2019-03-04T13:01:39.510Z,53.10
2019-03-04T13:02:44.429Z,53.20
2019-03-04T13:03:50.328Z,52.80
2019-03-04T13:04:56.262Z,52.90
2019-03-04T13:06:04.521Z,53.30
2019-03-04T13:07:22.268Z,53.10
2019-03-04T13:08:27.877Z,53.10
2019-03-04T13:09:45.896Z,53.10
2019-03-04T13:10:57.000Z,53.20
2019-03-04T13:12:19.744Z,53.40
2019-03-04T13:13:14.747Z,53.10
2019-03-04T13:14:24.123Z,53.20
2019-03-04T13:15:39.302Z,53.30
2019-03-04T13:17:02.460Z,53.10
2019-03-04T13:18:08.321Z,53.10
2019-03-04T13:19:23.339Z,53.00
2019-03-04T13:20:31.083Z,53.00
2019-03-04T13:21:36.966Z,52.60
2019-03-04T13:22:43.421Z,52.70
2019-03-04T13:23:50.429Z,52.60
2019-03-04T13:24:56.294Z,52.60
2019-03-04T13:26:03.033Z,52.70
2019-03-04T13:27:07.947Z,52.70
2019-03-04T13:28:19.635Z,52.60
2019-03-04T13:29:26.474Z,52.70
2019-03-04T13:30:39.278Z,53.00
2019-03-04T13:31:45.269Z,53.20
2019-03-04T13:32:50.682Z,53.10
2019-03-04T13:33:55.083Z,53.40
2019-03-04T13:35:01.145Z,53.20
2019-03-04T13:36:11.260Z,53.30
2019-03-04T13:37:28.444Z,53.50
2019-03-04T13:38:39.310Z,53.60
2019-03-04T13:41:21.467Z,52.80
2019-03-04T13:42:36.144Z,52.60
2019-03-04T13:43:57.611Z,52.70
2019-03-04T13:44:56.740Z,52.70
2019-03-04T13:46:04.668Z,52.50
2019-03-04T13:47:11.882Z,52.60
2019-03-04T13:48:22.055Z,53.10
2019-03-04T13:49:31.246Z,52.50
2019-03-04T13:50:42.728Z,52.60
2019-03-04T13:51:57.963Z,52.60
2019-03-04T13:53:10.867Z,52.40
2019-03-04T13:54:17.712Z,52.30
2019-03-04T13:55:27.199Z,52.40
2019-03-04T13:56:36.498Z,51.70
2019-03-04T13:57:47.257Z,51.90
2019-03-04T13:58:53.739Z,51.60
2019-03-04T13:59:59.860Z,51.80
2019-03-04T14:01:12.065Z,51.90
2019-03-04T14:02:22.152Z,51.80
2019-03-04T14:03:26.533Z,51.90
2019-03-04T14:04:33.890Z,51.90
2019-03-04T14:05:43.880Z,51.90
2019-03-04T14:06:53.421Z,51.90
2019-03-04T14:07:58.825Z,51.90
2019-03-04T14:09:16.307Z,51.90
2019-03-04T14:10:28.841Z,51.60
2019-03-04T14:11:35.263Z,51.60
2019-03-04T14:12:44.761Z,51.70
2019-03-04T14:13:49.485Z,51.60
2019-03-04T14:14:59.692Z,51.60
2019-03-04T14:16:11.564Z,51.80
2019-03-04T14:17:16.729Z,50.80
2019-03-04T14:18:24.269Z,51.20
2019-03-04T14:19:29.093Z,51.30
2019-03-04T14:20:33.727Z,51.40
2019-03-04T14:21:44.665Z,51.30
2019-03-04T14:24:18.110Z,51.50
2019-03-04T14:25:28.404Z,51.60
2019-03-04T14:26:33.649Z,51.50
2019-03-04T14:27:47.905Z,51.70
2019-03-04T14:28:56.862Z,51.80
2019-03-04T14:30:02.285Z,51.90
2019-03-04T14:31:23.532Z,52.10
2019-03-04T14:32:37.382Z,52.20
2019-03-04T14:33:43.121Z,52.40
2019-03-04T14:34:48.248Z,52.60
2019-03-04T14:36:03.909Z,52.10
2019-03-04T14:37:12.177Z,52.20
2019-03-04T14:38:16.731Z,52.20
2019-03-04T14:39:27.888Z,52.00
2019-03-04T14:40:34.170Z,52.20
2019-03-04T14:41:46.251Z,52.40
2019-03-04T14:42:51.728Z,52.30
2019-03-04T14:43:58.757Z,52.10
2019-03-04T14:45:06.989Z,51.80
2019-03-04T14:46:15.642Z,51.90
2019-03-04T14:47:24.865Z,51.70
2019-03-04T14:48:31.628Z,51.50
2019-03-04T14:49:45.264Z,51.40
2019-03-04T14:50:50.796Z,51.10
2019-03-04T14:51:58.252Z,50.80
2019-03-04T14:53:02.725Z,50.80
2019-03-04T14:54:10.387Z,51.70
2019-03-04T14:55:33.045Z,50.90
2019-03-04T14:56:38.451Z,50.60
2019-03-04T14:58:03.188Z,50.40
2019-03-04T14:59:14.839Z,50.30
2019-03-04T15:00:33.370Z,50.50
2019-03-04T15:01:43.503Z,50.60
2019-03-04T15:02:57.435Z,50.70
2019-03-04T15:04:06.863Z,50.90
2019-03-04T15:05:19.395Z,51.60
2019-03-04T15:06:27.921Z,51.00
2019-03-04T15:07:32.993Z,51.00
2019-03-04T15:08:43.759Z,51.10
2019-03-04T15:09:54.615Z,51.40
2019-03-04T15:11:09.267Z,50.40
2019-03-04T15:12:28.214Z,50.80
2019-03-04T15:13:36.009Z,50.50
2019-03-04T15:14:43.463Z,50.80
2019-03-04T15:16:03.669Z,50.90
2019-03-04T15:18:51.217Z,51.30
2019-03-04T15:20:11.041Z,51.50
2019-03-04T15:22:00.946Z,51.40
2019-03-04T15:22:50.645Z,51.40
2019-03-04T15:23:48.644Z,51.60
2019-03-04T15:24:58.403Z,51.80
2019-03-04T15:26:21.965Z,51.90
2019-03-04T15:27:30.368Z,51.60
2019-03-04T15:28:39.853Z,51.70
2019-03-04T15:29:45.871Z,51.80
2019-03-04T15:31:00.365Z,51.90
2019-03-04T15:32:05.574Z,51.90